createdAt,value
2023-05-15T00:00:32.034Z,21.45
2023-05-15T00:05:36.191Z,16.98
2023-05-15T00:10:42.903Z,16.33
2023-05-15T00:15:58.747Z,19.05
2023-05-15T00:21:02.956Z,19.27
2023-05-15T00:26:07.198Z,21.42
2023-05-15T00:31:13.223Z,17.30
2023-05-15T00:36:17.597Z,20.73
2023-05-15T00:41:24.162Z,23.73
2023-05-15T00:46:33.314Z,23.38
2023-05-15T00:51:37.900Z,18.58
2023-05-15T00:56:43.516Z,21.75
2023-05-15T01:01:48.955Z,20.73
2023-05-15T01:06:54.197Z,25.58
2023-05-15T01:12:00.637Z,25.38
2023-05-15T01:17:06.184Z,28.17
2023-05-15T01:38:09.417Z,29.20
2023-05-15T01:43:25.873Z,34.97
2023-05-15T01:48:32.740Z,26.90
2023-05-15T01:53:38.889Z,30.90
2023-05-15T01:58:48.575Z,29.53
2023-05-15T02:03:54.648Z,32.10
2023-05-15T02:09:00.070Z,36.77
2023-05-15T02:14:06.799Z,30.92
2023-05-15T02:19:11.024Z,32.20
2023-05-15T02:24:15.335Z,35.90
2023-05-15T02:29:26.841Z,39.25
2023-05-15T02:34:40.547Z,43.20
2023-05-15T02:39:46.676Z,37.42
2023-05-15T02:44:54.264Z,42.70
2023-05-15T02:49:58.792Z,35.28
2023-05-15T02:55:03.041Z,39.08
2023-05-15T03:00:11.891Z,43.47
2023-05-15T03:05:15.990Z,39.65
2023-05-15T03:10:21.278Z,40.17
2023-05-15T03:15:27.221Z,41.55
2023-05-15T03:20:31.512Z,45.50
2023-05-15T03:25:35.605Z,42.47
2023-05-15T03:30:46.820Z,47.63
2023-05-15T03:35:52.108Z,47.53
2023-05-15T03:40:56.216Z,43.42
2023-05-15T03:46:02.600Z,45.35
2023-05-15T03:51:06.928Z,45.10
2023-05-15T03:56:11.117Z,42.85
2023-05-15T04:01:16.693Z,42.15
2023-05-15T04:06:20.876Z,45.47
2023-05-15T04:11:25.452Z,49.63
2023-05-15T04:16:31.006Z,51.75
2023-05-15T04:21:35.124Z,46.45
2023-05-15T04:26:39.185Z,49.42
2023-05-15T04:31:45.838Z,50.08
2023-05-15T04:36:52.811Z,48.80
2023-05-15T04:41:56.923Z,48.72
2023-05-15T04:47:04.393Z,48.08
2023-05-15T04:52:08.833Z,49.55
2023-05-15T04:57:13.212Z,45.03
2023-05-15T05:02:22.421Z,48.05
2023-05-15T05:07:26.721Z,45.88
2023-05-15T05:12:30.900Z,50.58
2023-05-15T05:17:36.650Z,49.50
2023-05-15T05:22:44.114Z,49.83
2023-05-15T05:27:50.823Z,49.05
2023-05-15T05:32:56.506Z,47.40
2023-05-15T05:38:03.326Z,45.72
2023-05-15T05:43:08.691Z,46.30
2023-05-15T05:48:14.427Z,42.55
2023-05-15T05:53:18.526Z,42.85
2023-05-15T05:58:25.851Z,33.88
2023-05-15T06:03:32.178Z,30.77
2023-05-15T06:08:36.362Z,32.85
2023-05-15T06:13:40.652Z,32.30
2023-05-15T06:18:46.152Z,31.83
2023-05-15T06:23:52.469Z,29.92
2023-05-15T06:28:59.472Z,38.70
2023-05-15T06:39:10.823Z,38.95
2023-05-15T06:44:14.944Z,37.27
2023-05-15T06:49:20.427Z,32.00
2023-05-15T06:54:24.517Z,32.90
2023-05-15T06:59:31.258Z,33.10
2023-05-15T07:04:39.494Z,30.77
2023-05-15T07:09:48.245Z,35.40
2023-05-15T07:14:52.452Z,35.72
2023-05-15T07:19:57.982Z,29.40
2023-05-15T07:25:02.257Z,32.42
2023-05-15T07:30:07.665Z,34.70
2023-05-15T07:35:13.219Z,35.50
2023-05-15T07:40:17.312Z,33.58
2023-05-15T07:45:21.976Z,37.70
2023-05-15T07:50:28.106Z,34.88
2023-05-15T07:55:32.167Z,33.55
2023-05-15T08:00:36.200Z,32.10
2023-05-15T08:05:41.659Z,37.72
2023-05-15T08:10:45.873Z,35.80
2023-05-15T08:15:49.981Z,33.92
2023-05-15T08:20:55.786Z,35.13
2023-05-15T08:26:00.192Z,33.22
2023-05-15T08:31:04.501Z,33.67
2023-05-15T08:36:11.032Z,32.38
2023-05-15T08:41:39.344Z,27.67
2023-05-15T08:46:45.105Z,33.53
2023-05-15T08:51:50.665Z,30.55
2023-05-15T08:56:55.019Z,33.85
2023-05-15T09:01:59.240Z,30.33
2023-05-15T09:07:05.443Z,32.70
2023-05-15T09:12:12.016Z,27.13
2023-05-15T09:17:16.641Z,26.33
2023-05-15T09:22:24.266Z,26.73
2023-05-15T09:27:28.347Z,30.48
2023-05-15T09:32:33.804Z,25.33
2023-05-15T09:37:39.220Z,25.77
2023-05-15T09:42:43.235Z,22.02
2023-05-15T09:47:48.004Z,23.45
2023-05-15T09:52:53.740Z,25.58
2023-05-15T09:58:09.360Z,23.95
2023-05-15T10:03:14.122Z,22.58
2023-05-15T10:08:29.277Z,18.77
2023-05-15T10:13:35.596Z,25.38
2023-05-15T10:18:41.940Z,29.30
2023-05-15T10:23:49.064Z,29.80
2023-05-15T10:28:54.207Z,33.05
2023-05-15T10:33:59.553Z,33.72
2023-05-15T10:39:06.479Z,35.40
2023-05-15T10:49:15.748Z,40.63
2023-05-15T10:54:23.288Z,37.90
2023-05-15T10:59:33.546Z,39.90
2023-05-15T11:04:38.892Z,47.30
2023-05-15T11:09:44.434Z,42.20
2023-05-15T11:15:22.090Z,42.45
2023-05-15T11:20:36.473Z,43.70
2023-05-15T11:25:42.824Z,46.42
2023-05-15T11:30:48.515Z,47.88
2023-05-15T11:36:01.698Z,46.83
2023-05-15T11:41:19.846Z,45.40
2023-05-15T11:46:24.666Z,51.25
2023-05-15T11:51:30.175Z,41.35
2023-05-15T11:56:35.657Z,41.13
2023-05-15T12:01:43.463Z,44.17
2023-05-15T12:06:49.636Z,44.67
2023-05-15T12:11:56.138Z,36.37
2023-05-15T12:17:02.879Z,38.05
2023-05-15T12:27:14.641Z,37.60
2023-05-15T12:32:18.936Z,39.92
2023-05-15T12:37:23.074Z,38.00
2023-05-15T12:42:28.835Z,33.60
2023-05-15T12:47:39.697Z,33.92
2023-05-15T12:53:04.333Z,32.97
2023-05-15T12:58:12.655Z,33.17
2023-05-15T13:03:17.049Z,26.90
2023-05-15T13:08:21.310Z,24.02
2023-05-15T13:13:46.737Z,21.75
2023-05-15T13:18:54.636Z,22.23
2023-05-15T13:23:58.910Z,19.38
2023-05-15T13:29:04.770Z,17.48
2023-05-15T13:34:09.235Z,14.88
2023-05-15T13:39:16.140Z,15.73
2023-05-15T13:44:21.698Z,8.35
2023-05-15T13:49:27.590Z,10.15
2023-05-15T13:54:34.455Z,6.93
2023-05-15T13:59:41.491Z,10.10
2023-05-15T14:04:48.115Z,10.90
2023-05-15T14:09:52.670Z,9.95
2023-05-15T14:14:59.525Z,7.20
2023-05-15T14:20:06.088Z,9.82
2023-05-15T14:25:14.479Z,11.57
2023-05-15T14:30:27.072Z,10.90
2023-05-15T14:35:36.579Z,10.30
2023-05-15T14:40:43.166Z,6.93
2023-05-15T14:45:48.807Z,6.70
2023-05-15T14:50:53.557Z,8.68
2023-05-15T14:55:58.775Z,6.22
2023-05-15T15:01:04.981Z,6.70
2023-05-15T15:06:09.352Z,3.73
2023-05-15T15:11:13.458Z,8.80
2023-05-15T15:16:19.408Z,8.57
2023-05-15T15:21:23.628Z,6.00
2023-05-15T15:26:27.715Z,4.93
2023-05-15T15:31:33.352Z,2.72
2023-05-15T15:36:39.304Z,2.60
2023-05-15T15:41:43.411Z,6.95
2023-05-15T15:46:48.866Z,2.53
2023-05-15T15:51:53.073Z,4.10
2023-05-15T15:56:57.280Z,7.82
2023-05-15T16:02:03.135Z,3.38
2023-05-15T16:07:07.757Z,3.13
2023-05-15T16:12:11.972Z,7.90
2023-05-15T16:17:17.495Z,7.68
2023-05-15T16:22:21.532Z,10.00
2023-05-15T16:27:26.434Z,4.65
2023-05-15T16:32:34.603Z,3.72
2023-05-15T16:37:38.930Z,8.05
2023-05-15T16:42:43.162Z,4.13
2023-05-15T16:47:48.675Z,3.70
2023-05-15T16:52:53.278Z,8.02
2023-05-15T16:57:57.731Z,6.90
2023-05-15T17:03:03.821Z,5.93
2023-05-15T17:08:08.083Z,5.13
2023-05-15T17:13:12.156Z,3.88
2023-05-15T17:18:17.668Z,4.85
2023-05-15T17:23:23.046Z,2.78
2023-05-15T17:28:27.685Z,5.53
2023-05-15T17:33:33.113Z,5.93
2023-05-15T17:38:37.184Z,6.30
2023-05-15T17:43:41.453Z,3.15
2023-05-15T17:48:46.944Z,4.38
2023-05-15T17:53:51.342Z,4.47
2023-05-15T17:58:55.678Z,7.63
2023-05-15T18:04:01.234Z,5.95
2023-05-15T18:09:05.586Z,3.47
2023-05-15T18:14:10.260Z,10.88
2023-05-15T18:19:15.780Z,7.35
2023-05-15T18:24:19.966Z,8.65
2023-05-15T18:29:24.325Z,9.10
2023-05-15T18:34:29.808Z,8.57
2023-05-15T18:39:33.782Z,7.20
2023-05-15T18:44:37.823Z,8.82
2023-05-15T18:49:43.303Z,12.15
2023-05-15T18:54:47.372Z,17.13
2023-05-15T18:59:51.518Z,10.68
2023-05-15T19:04:57.005Z,13.90
2023-05-15T19:10:01.231Z,7.43
2023-05-15T19:15:06.527Z,10.88
2023-05-15T19:20:13.180Z,8.25
2023-05-15T19:25:17.307Z,9.55
2023-05-15T19:30:21.557Z,8.90
2023-05-15T19:35:27.005Z,8.93
2023-05-15T19:40:31.066Z,8.25
2023-05-15T19:45:35.192Z,10.20
2023-05-15T19:50:41.378Z,3.90
2023-05-15T19:55:45.650Z,4.47
2023-05-15T20:00:50.060Z,6.10
2023-05-15T20:05:56.073Z,10.73
2023-05-15T20:11:00.457Z,8.05
2023-05-15T20:16:07.094Z,5.97
2023-05-15T20:21:12.735Z,4.30
2023-05-15T20:26:16.832Z,6.57
2023-05-15T20:31:21.115Z,6.80
2023-05-15T20:36:27.120Z,6.70
2023-05-15T20:41:31.239Z,6.38
2023-05-15T20:46:35.298Z,5.68
2023-05-15T20:51:41.726Z,6.53
2023-05-15T20:56:45.847Z,10.50
2023-05-15T21:01:50.147Z,5.82
2023-05-15T21:06:55.876Z,8.65
2023-05-15T21:11:59.972Z,7.90
2023-05-15T21:17:04.242Z,6.72
2023-05-15T21:22:09.834Z,8.63
2023-05-15T21:27:13.894Z,6.97
2023-05-15T21:32:18.179Z,10.55
2023-05-15T21:37:23.856Z,6.47
2023-05-15T21:42:27.871Z,11.77
2023-05-15T21:47:31.958Z,5.38
2023-05-15T21:52:37.523Z,11.68
2023-05-15T21:57:41.760Z,11.20
2023-05-15T22:02:46.400Z,10.50
2023-05-15T22:07:51.888Z,8.00
2023-05-15T22:12:56.196Z,12.80
2023-05-15T22:18:01.558Z,11.65
2023-05-15T22:23:07.875Z,10.20
2023-05-15T22:28:12.048Z,7.60
2023-05-15T22:33:16.213Z,8.55
2023-05-15T22:38:21.836Z,9.25
2023-05-15T22:43:26.033Z,6.03
2023-05-15T22:48:30.238Z,8.80
2023-05-15T22:53:35.782Z,12.43
2023-05-15T22:58:39.935Z,12.63
2023-05-15T23:03:44.295Z,16.50
2023-05-15T23:08:50.553Z,11.55
2023-05-15T23:13:54.957Z,15.13
2023-05-15T23:18:59.255Z,13.02
2023-05-15T23:24:05.133Z,8.90
2023-05-15T23:29:09.319Z,6.90
2023-05-15T23:34:13.383Z,12.20
2023-05-15T23:39:18.880Z,10.65
2023-05-15T23:44:22.957Z,10.68
2023-05-15T23:49:27.218Z,9.05
2023-05-15T23:54:32.776Z,11.77
2023-05-15T23:59:36.808Z,12.60
